Time;durP1;ratioP1;P1;durP2;ratioP2;P2;SDS_P1;SDS_P2;PMS_P1;PMS_P2;Temp;Humidity;BMP_temperature;BMP_pressure;BME280_temperature;BME280_humidity;BME280_pressure;Samples;Min_cycle;Max_cycle;Signal;HPM_P1;HPM_P2
2021/04/01 00:00:08;;;;;;;31.40;17.83;;;;;;;10.44;58.29;101065.16;5097063;28;20190;-70
2021/04/01 00:02:33;;;;;;;33.33;17.83;;;;;;;10.45;58.64;101067.75;5097837;28;20182;-70
2021/04/01 00:04:59;;;;;;;34.60;18.60;;;;;;;10.41;59.39;101078.66;5098118;28;20198;-71
2021/04/01 00:07:24;;;;;;;31.13;17.83;;;;;;;10.16;59.07;101074.47;5097904;28;20642;-70
2021/04/01 00:09:50;;;;;;;28.90;17.77;;;;;;;10.06;59.21;101072.31;5097653;28;20213;-71
2021/04/01 00:12:15;;;;;;;29.27;18.53;;;;;;;10.02;59.11;101071.56;5097621;28;20177;-71
2021/04/01 00:14:40;;;;;;;36.57;19.30;;;;;;;10.01;60.26;101067.16;5097340;28;20273;-71
2021/04/01 00:17:07;;;;;;;35.10;19.13;;;;;;;9.96;60.31;101072.72;5096664;28;20190;-71
2021/04/01 00:19:32;;;;;;;29.00;17.67;;;;;;;9.88;61.22;101069.53;5096599;28;20685;-70
2021/04/01 00:21:58;;;;;;;31.33;19.00;;;;;;;9.85;61.62;101076.81;5096806;28;20170;-69
2021/04/01 00:24:23;;;;;;;34.83;19.80;;;;;;;9.81;63.08;101073.44;5096337;28;20674;-70
2021/04/01 00:26:48;;;;;;;33.27;19.57;;;;;;;9.81;62.93;101064.56;5096083;28;20209;-70
2021/04/01 00:29:13;;;;;;;32.87;19.77;;;;;;;9.90;62.82;101062.34;5096480;28;20204;-71
2021/04/01 00:31:39;;;;;;;36.80;17.63;;;;;;;9.91;62.34;101064.06;5096413;28;20174;-71
2021/04/01 00:34:04;;;;;;;30.30;19.27;;;;;;;9.96;62.60;101058.50;5096362;28;20220;-69
2021/04/01 00:36:29;;;;;;;36.00;20.43;;;;;;;9.90;62.33;101053.47;5096380;28;20187;-70
2021/04/01 00:38:55;;;;;;;27.13;17.13;;;;;;;9.92;61.54;101048.94;5094810;28;20243;-71
2021/04/01 00:41:20;;;;;;;32.27;17.37;;;;;;;9.94;62.10;101039.91;5094384;28;20543;-72
2021/04/01 00:43:45;;;;;;;26.20;16.87;;;;;;;9.95;61.46;101041.66;5096982;28;20170;-72
2021/04/01 00:46:11;;;;;;;27.60;17.40;;;;;;;9.95;61.32;101033.66;5095106;28;20206;-74
2021/04/01 00:48:36;;;;;;;27.63;17.00;;;;;;;10.01;61.80;101040.50;5096107;28;20303;-70
2021/04/01 00:51:01;;;;;;;28.73;17.10;;;;;;;10.00;61.74;101038.75;5097943;28;20638;-70
2021/04/01 00:53:27;;;;;;;27.23;17.00;;;;;;;9.93;61.55;101038.19;5098461;28;20178;-70
2021/04/01 00:55:52;;;;;;;24.10;15.47;;;;;;;9.99;61.65;101029.03;5096038;28;20660;-69
2021/04/01 00:58:18;;;;;;;28.60;17.70;;;;;;;10.05;62.26;101028.78;5094636;28;20304;-71
2021/04/01 01:00:43;;;;;;;34.37;20.70;;;;;;;10.06;62.94;101033.16;5095788;28;20546;-70
2021/04/01 01:03:08;;;;;;;33.90;20.77;;;;;;;10.03;63.86;101026.19;5095296;28;20167;-70
2021/04/01 01:05:35;;;;;;;37.83;21.60;;;;;;;10.00;63.75;101025.44;5095369;28;20198;-70
2021/04/01 01:08:02;;;;;;;34.40;20.13;;;;;;;10.00;63.43;101018.28;5094555;28;20661;-70
2021/04/01 01:10:30;;;;;;;32.70;20.03;;;;;;;10.02;63.66;101020.88;5096222;28;20190;-70
2021/04/01 01:12:57;;;;;;;40.97;23.37;;;;;;;10.03;64.13;101009.28;5094662;28;20181;-70
2021/04/01 01:15:23;;;;;;;34.37;21.13;;;;;;;10.02;63.86;101020.88;5095244;28;20170;-70
2021/04/01 01:17:52;;;;;;;41.73;22.23;;;;;;;10.07;63.56;101005.56;5095709;28;20215;-70
2021/04/01 01:20:21;;;;;;;37.47;21.30;;;;;;;10.13;62.79;101013.25;5094411;28;20220;-70
2021/04/01 01:22:48;;;;;;;32.23;19.70;;;;;;;10.05;63.34;101014.56;5095478;28;20175;-70
2021/04/01 01:25:14;;;;;;;38.73;20.57;;;;;;;9.93;63.79;101005.34;5094710;28;20252;-70
2021/04/01 01:27:39;;;;;;;33.97;21.53;;;;;;;9.85;64.30;101007.50;5094657;28;20236;-70
2021/04/01 01:30:13;;;;;;;42.40;20.30;;;;;;;9.68;64.50;101006.50;5093650;28;20247;-70
2021/04/01 01:32:39;;;;;;;38.47;22.80;;;;;;;9.80;64.51;100998.84;5095593;28;20170;-70
2021/04/01 01:35:14;;;;;;;34.50;21.47;;;;;;;9.77;64.86;100999.00;5095229;28;20193;-70
2021/04/01 01:37:50;;;;;;;35.13;21.53;;;;;;;9.77;64.58;100991.00;5093986;28;20162;-70
2021/04/01 01:40:15;;;;;;;32.93;20.47;;;;;;;9.70;65.06;100999.28;5094931;28;20672;-71
2021/04/01 01:42:41;;;;;;;32.53;20.63;;;;;;;9.68;64.30;101009.16;5095692;28;20178;-69
2021/04/01 01:45:07;;;;;;;34.20;20.77;;;;;;;9.62;64.36;100997.91;5095362;28;20205;-70
2021/04/01 01:47:32;;;;;;;33.40;20.30;;;;;;;9.66;63.95;101004.81;5094398;28;20178;-69
2021/04/01 01:49:58;;;;;;;32.03;19.00;;;;;;;9.81;63.33;100992.59;5094308;28;20735;-69
2021/04/01 01:52:23;;;;;;;32.47;20.17;;;;;;;9.81;63.41;100995.25;5094680;28;20174;-70
2021/04/01 01:54:48;;;;;;;32.27;19.83;;;;;;;9.89;62.90;100995.75;5094177;28;20173;-70
2021/04/01 01:57:13;;;;;;;30.37;18.93;;;;;;;9.75;63.44;100999.06;5094822;28;20573;-71
2021/04/01 01:59:39;;;;;;;29.70;18.33;;;;;;;9.78;63.39;100993.59;5094091;28;20259;-69
2021/04/01 02:02:04;;;;;;;31.33;18.63;;;;;;;9.82;63.14;100989.00;5094730;28;20181;-70
2021/04/01 02:04:29;;;;;;;29.93;17.23;;;;;;;9.83;63.47;100982.72;5094421;28;20201;-69
2021/04/01 02:06:55;;;;;;;30.03;17.83;;;;;;;9.73;63.82;100986.75;5094219;28;20174;-70
2021/04/01 02:09:20;;;;;;;26.87;17.10;;;;;;;9.77;62.82;100985.69;5094241;28;20681;-70
2021/04/01 02:11:45;;;;;;;26.00;17.43;;;;;;;9.85;62.40;100992.38;5095525;28;20173;-69
2021/04/01 02:14:11;;;;;;;26.40;17.37;;;;;;;9.94;62.08;100991.06;5094193;28;20170;-70
2021/04/01 02:16:36;;;;;;;25.67;16.37;;;;;;;9.98;61.36;100992.63;5094308;28;20614;-70
2021/04/01 02:19:01;;;;;;;25.43;16.77;;;;;;;10.01;61.45;100973.81;5094205;28;20217;-71
2021/04/01 02:21:27;;;;;;;30.10;17.93;;;;;;;10.06;61.86;100970.97;5095143;28;20239;-70
2021/04/01 02:23:52;;;;;;;28.60;17.30;;;;;;;9.95;61.90;100972.31;5094682;28;20174;-70
2021/04/01 02:26:18;;;;;;;31.03;18.17;;;;;;;9.81;61.86;100977.47;5094830;28;20608;-70
2021/04/01 02:28:43;;;;;;;26.20;16.23;;;;;;;9.77;61.98;100975.03;5094330;28;20208;-70
2021/04/01 02:31:09;;;;;;;25.37;14.63;;;;;;;9.76;60.05;100967.97;5094620;28;20170;-70
2021/04/01 02:33:36;;;;;;;21.60;11.23;;;;;;;9.79;60.04;100970.47;5093878;28;20185;-71
2021/04/01 02:36:03;;;;;;;23.10;14.67;;;;;;;9.75;60.65;100963.56;5094837;28;20236;-70
2021/04/01 02:38:28;;;;;;;32.00;16.63;;;;;;;9.60;62.02;100960.66;5093429;28;20185;-71
2021/04/01 02:40:54;;;;;;;30.23;18.43;;;;;;;9.64;63.05;100954.25;5094339;28;20170;-69
2021/04/01 02:45:57;;;;;;;32.60;18.70;;;;;;;9.86;61.82;100967.44;5095079;28;20194;-70
2021/04/01 02:48:22;;;;;;;32.07;18.60;;;;;;;9.94;61.80;100969.72;5094633;28;20184;-71
2021/04/01 02:50:47;;;;;;;31.33;19.60;;;;;;;10.03;61.54;100967.50;5093595;28;20174;-71
2021/04/01 02:53:13;;;;;;;31.53;19.90;;;;;;;10.16;60.96;100975.78;5094252;28;20237;-69
2021/04/01 02:55:38;;;;;;;31.47;20.03;;;;;;;10.22;60.51;100970.16;5094280;28;20249;-70
2021/04/01 02:58:04;;;;;;;32.73;19.33;;;;;;;10.23;60.20;100974.56;5093799;28;20524;-70
2021/04/01 03:00:31;;;;;;;29.00;19.10;;;;;;;10.22;60.38;100971.97;5092038;28;20285;-69
2021/04/01 03:03:01;;;;;;;31.03;17.97;;;;;;;10.19;60.46;100967.63;5093674;28;20524;-70
2021/04/01 03:05:27;;;;;;;30.63;19.17;;;;;;;10.08;60.39;100977.94;5095405;28;20197;-69
2021/04/01 03:07:52;;;;;;;28.87;19.67;;;;;;;9.90;61.20;100962.81;5097717;28;20186;-70
2021/04/01 03:10:17;;;;;;;32.33;19.57;;;;;;;9.87;61.77;100968.31;5096831;28;20250;-69
2021/04/01 03:12:43;;;;;;;27.00;17.57;;;;;;;9.70;62.22;100961.97;5097633;28;20182;-70
2021/04/01 03:15:10;;;;;;;25.87;16.80;;;;;;;9.55;62.70;100953.81;5097679;28;20170;-69
2021/04/01 03:17:37;;;;;;;23.00;13.90;;;;;;;9.33;62.82;100952.16;5099067;28;20174;-71
2021/04/01 03:20:03;;;;;;;22.70;14.23;;;;;;;9.22;63.49;100959.75;5107612;28;20206;-69
2021/04/01 03:22:29;;;;;;;23.30;13.83;;;;;;;9.01;63.96;100950.97;5099618;28;20174;-69
2021/04/01 03:24:54;;;;;;;28.83;17.50;;;;;;;8.87;65.01;100958.66;5097411;28;20202;-70
2021/04/01 03:27:19;;;;;;;24.07;15.03;;;;;;;8.92;64.62;100951.38;5097548;28;20228;-70
2021/04/01 03:30:03;;;;;;;22.27;13.90;;;;;;;8.97;64.74;100938.72;5097134;28;20197;-71
2021/04/01 03:32:29;;;;;;;23.27;14.50;;;;;;;8.99;64.77;100947.50;5097289;28;20242;-70
2021/04/01 03:34:54;;;;;;;24.13;14.53;;;;;;;9.01;65.13;100955.41;5097382;28;20174;-70
2021/04/01 03:37:19;;;;;;;23.37;14.90;;;;;;;9.04;64.91;100948.16;5097286;28;20177;-70
2021/04/01 03:39:45;;;;;;;23.83;16.07;;;;;;;9.09;64.65;100948.81;5097344;28;20198;-70
2021/04/01 03:42:10;;;;;;;24.63;16.23;;;;;;;9.14;64.81;100953.06;5097133;28;20580;-70
2021/04/01 03:44:35;;;;;;;28.30;15.90;;;;;;;9.22;64.29;100958.91;5096577;28;20285;-70
2021/04/01 03:47:01;;;;;;;25.87;16.97;;;;;;;9.32;63.51;100949.56;5096647;28;20181;-70
2021/04/01 03:49:26;;;;;;;32.37;17.27;;;;;;;9.38;63.18;100949.28;5095241;28;20202;-69
2021/04/01 03:51:51;;;;;;;29.47;18.30;;;;;;;9.47;62.37;100948.84;5096669;28;20205;-69
2021/04/01 03:54:16;;;;;;;27.80;17.73;;;;;;;9.53;62.44;100940.56;5096471;28;20182;-69
2021/04/01 03:56:48;;;;;;;29.30;16.43;;;;;;;9.56;62.73;100953.75;5096772;28;20185;-69
2021/04/01 03:59:13;;;;;;;31.43;16.27;;;;;;;9.58;62.23;100943.03;5097015;28;20204;-70
2021/04/01 04:12:32;;;;;;;33.93;19.10;;;;;;;9.62;61.89;100942.81;5096740;28;20299;-69
2021/04/01 04:15:08;;;;;;;29.77;18.53;;;;;;;9.66;61.97;100951.50;5097311;28;20170;-71
2021/04/01 04:17:34;;;;;;;28.40;18.40;;;;;;;9.70;61.70;100950.47;5096373;28;20254;-70
2021/04/01 04:19:59;;;;;;;32.53;18.10;;;;;;;9.66;62.23;100944.41;5097408;28;20190;-71
2021/04/01 04:22:25;;;;;;;30.10;18.80;;;;;;;9.45;62.71;100941.88;5097538;28;20182;-71
2021/04/01 04:24:51;;;;;;;29.57;15.27;;;;;;;9.46;62.78;100940.94;5097336;28;20566;-70
2021/04/01 04:27:37;;;;;;;27.97;16.80;;;;;;;9.43;62.68;100955.28;5102197;28;20182;-70
2021/04/01 04:30:02;;;;;;;27.27;17.13;;;;;;;9.53;62.34;100959.22;5112632;28;20224;-71
2021/04/01 04:32:32;;;;;;;29.67;17.47;;;;;;;9.62;61.72;100964.13;5111625;28;20228;-71
2021/04/01 04:34:58;;;;;;;33.67;19.20;;;;;;;9.73;61.30;100968.97;5108631;28;20639;-70
2021/04/01 04:37:23;;;;;;;32.20;19.47;;;;;;;9.92;60.17;100971.59;5104136;28;20183;-70
2021/04/01 04:39:49;;;;;;;28.33;19.10;;;;;;;10.06;60.34;100976.28;5106753;28;20205;-70
2021/04/01 04:42:14;;;;;;;34.63;20.33;;;;;;;10.11;60.40;100969.78;5098719;28;20190;-70
2021/04/01 04:44:39;;;;;;;32.73;20.10;;;;;;;9.93;61.75;100965.34;5095891;28;20201;-70
2021/04/01 04:47:05;;;;;;;37.17;20.50;;;;;;;9.66;61.96;100963.06;5097118;28;20170;-70
2021/04/01 04:49:30;;;;;;;34.53;20.03;;;;;;;9.47;62.67;100959.50;5097009;28;20213;-70
2021/04/01 04:51:56;;;;;;;35.10;20.37;;;;;;;9.40;62.65;100968.72;5096283;28;20198;-70
2021/04/01 04:54:21;;;;;;;30.57;19.33;;;;;;;9.35;62.81;100960.09;5094985;28;20534;-71
2021/04/01 04:56:48;;;;;;;31.80;20.30;;;;;;;9.35;63.06;100968.09;5096525;28;20176;-70
2021/04/01 04:59:26;;;;;;;32.13;19.37;;;;;;;9.32;63.51;100955.78;5094553;28;20190;-69
2021/04/01 05:07:01;;;;;;;28.33;20.10;;;;;;;9.60;62.71;100958.00;5095601;28;20170;-69
2021/04/01 05:09:26;;;;;;;30.53;18.93;;;;;;;9.67;62.30;100959.47;5095350;28;20194;-71
2021/04/01 05:11:52;;;;;;;29.90;18.27;;;;;;;9.73;62.24;100960.09;5093826;28;20554;-71
2021/04/01 05:14:17;;;;;;;30.30;19.83;;;;;;;9.54;63.51;100946.78;5093992;28;20167;-68
2021/04/01 05:16:42;;;;;;;28.73;19.73;;;;;;;9.56;64.03;100947.56;5093554;28;20244;-70
2021/04/01 05:19:11;;;;;;;34.07;20.93;;;;;;;9.46;63.87;100944.47;5094870;28;20269;-69
2021/04/01 05:21:47;;;;;;;35.43;21.00;;;;;;;9.35;64.86;100954.75;5094698;28;20257;-70
2021/04/01 05:24:12;;;;;;;32.03;17.70;;;;;;;9.34;64.81;100958.38;5094628;28;20695;-70
2021/04/01 05:29:17;;;;;;;34.07;18.97;;;;;;;9.06;66.95;100986.22;5093833;28;20205;-70
2021/04/01 05:31:43;;;;;;;30.47;17.77;;;;;;;8.94;66.97;100993.91;5093550;28;20162;-70
2021/04/01 05:34:09;;;;;;;32.43;20.90;;;;;;;8.92;66.80;100977.09;5094397;28;20223;-70
2021/04/01 05:36:41;;;;;;;36.17;22.23;;;;;;;9.08;66.71;100964.84;5094429;28;20270;-69
2021/04/01 05:39:10;;;;;;;33.57;21.40;;;;;;;9.27;65.34;100967.53;5094146;28;20216;-69
2021/04/01 05:41:37;;;;;;;36.37;22.07;;;;;;;9.39;64.51;100965.22;5094437;28;20482;-69
2021/04/01 05:46:38;;;;;;;27.93;18.53;;;;;;;9.61;64.27;100978.38;5092945;28;20674;-69
2021/04/01 05:49:25;;;;;;;33.23;19.60;;;;;;;9.71;63.04;100969.03;5094379;28;20193;-69
2021/04/01 06:05:59;;;;;;;26.20;16.67;;;;;;;10.04;63.32;100979.03;5093062;28;20189;-70
2021/04/01 06:08:28;;;;;;;24.83;16.93;;;;;;;9.90;63.46;100962.81;5093734;28;20172;-70
2021/04/01 06:10:54;;;;;;;28.00;18.40;;;;;;;9.94;62.45;100957.25;5093689;28;20197;-70
2021/04/01 06:13:23;;;;;;;27.07;17.00;;;;;;;9.85;63.62;100949.72;5093661;28;20175;-70
2021/04/01 06:15:50;;;;;;;29.17;18.27;;;;;;;9.62;64.84;100958.78;5094382;28;20166;-71
2021/04/01 06:18:17;;;;;;;25.23;17.67;;;;;;;9.60;64.37;100963.31;5092366;28;20642;-70
2021/04/01 06:20:44;;;;;;;28.20;15.97;;;;;;;9.67;64.84;100967.47;5093736;28;20222;-69
2021/04/01 06:23:24;;;;;;;26.83;18.50;;;;;;;9.89;63.14;100969.97;5092464;28;20170;-70
2021/04/01 06:25:53;;;;;;;36.17;20.53;;;;;;;10.10;62.39;100978.75;5092450;28;20189;-70
2021/04/01 06:28:22;;;;;;;38.53;23.07;;;;;;;10.29;61.80;100976.06;5093366;28;20190;-70
2021/04/01 06:30:53;;;;;;;33.07;21.27;;;;;;;10.41;60.89;100974.59;5092222;28;20177;-70
2021/04/01 06:33:23;;;;;;;36.37;22.60;;;;;;;10.53;59.88;100981.97;5092087;28;20172;-70
2021/04/01 06:35:55;;;;;;;34.33;22.30;;;;;;;10.66;59.76;100977.75;5076046;28;20170;-69
2021/04/01 06:38:22;;;;;;;31.60;20.87;;;;;;;10.77;59.38;100972.69;5093729;28;20622;-69
2021/04/01 06:41:00;;;;;;;37.33;23.00;;;;;;;10.87;58.24;100973.97;5091373;28;20258;-70
2021/04/01 06:43:38;;;;;;;30.60;20.33;;;;;;;10.91;57.86;100986.22;5093178;28;20169;-70
2021/04/01 06:46:08;;;;;;;34.30;22.73;;;;;;;10.98;57.67;100980.56;5093448;28;20197;-72
2021/04/01 06:51:36;;;;;;;34.90;21.47;;;;;;;11.04;57.36;100972.22;5064313;28;20197;-71
2021/04/01 06:56:54;;;;;;;33.27;21.77;;;;;;;11.13;57.36;100979.75;5093185;28;20224;-69
2021/04/01 07:02:18;;;;;;;24.40;16.23;;;;;;;11.10;57.74;100985.25;5092264;28;20159;-71
2021/04/01 07:04:45;;;;;;;28.47;19.03;;;;;;;10.96;57.88;100972.63;5093140;28;20194;-70
2021/04/01 07:07:18;;;;;;;30.73;20.30;;;;;;;10.94;57.84;100971.84;5092888;28;20174;-70
2021/04/01 07:12:49;;;;;;;32.83;19.63;;;;;;;11.24;57.05;100972.03;5078730;28;20185;-70
2021/04/01 07:15:21;;;;;;;31.23;20.20;;;;;;;10.72;59.40;100969.41;5092117;28;20646;-70
2021/04/01 07:17:58;;;;;;;25.13;17.03;;;;;;;11.00;58.58;100968.84;5091683;28;20527;-70
2021/04/01 07:48:26;;;;;;;26.03;17.27;;;;;;;11.52;58.04;100950.91;5091978;28;20162;-71
2021/04/01 07:50:53;;;;;;;25.70;18.50;;;;;;;11.55;57.86;100960.56;5075436;28;20180;-70
2021/04/01 07:53:24;;;;;;;28.63;19.23;;;;;;;11.62;57.83;100950.41;5095411;28;20201;-71
2021/04/01 08:03:56;;;;;;;32.20;19.43;;;;;;;12.59;55.33;100968.88;5095258;28;20242;-70
2021/04/01 08:06:21;;;;;;;30.00;19.47;;;;;;;12.73;55.65;100971.63;5096324;28;20193;-71
2021/04/01 08:08:49;;;;;;;32.17;20.80;;;;;;;12.50;57.13;100977.47;5095972;28;20186;-70
2021/04/01 08:11:24;;;;;;;33.07;22.20;;;;;;;12.05;58.40;100970.28;5095130;28;20523;-71
2021/04/01 08:13:58;;;;;;;33.03;20.63;;;;;;;12.72;56.86;100966.34;5095088;28;20161;-71
2021/04/01 08:16:23;;;;;;;35.37;22.80;;;;;;;12.34;57.66;100968.63;5095015;28;20271;-71
2021/04/01 08:18:52;;;;;;;34.07;21.80;;;;;;;12.37;58.00;100973.78;5095801;28;20194;-70
2021/04/01 08:21:17;;;;;;;40.03;25.50;;;;;;;12.18;57.76;100969.47;5095053;28;20261;-70
2021/04/01 08:23:51;;;;;;;33.40;21.83;;;;;;;12.44;57.68;100945.69;5096056;28;20192;-70
2021/04/01 08:26:35;;;;;;;36.50;22.93;;;;;;;12.53;56.81;100951.38;5095928;28;20546;-68
2021/04/01 08:29:28;;;;;;;36.80;22.00;;;;;;;12.91;55.91;100952.72;5094566;28;20213;-70
2021/04/01 08:32:11;;;;;;;38.37;24.47;;;;;;;13.00;55.97;100950.31;5101693;28;20214;-69
2021/04/01 08:34:40;;;;;;;39.80;25.67;;;;;;;12.99;55.91;100963.81;5094868;28;20154;-70
2021/04/01 08:37:07;;;;;;;35.83;23.67;;;;;;;13.05;55.45;100964.31;5095593;28;20626;-69
2021/04/01 08:39:35;;;;;;;40.57;26.70;;;;;;;13.08;55.16;100977.53;5095387;28;20190;-69
2021/04/01 08:42:07;;;;;;;40.47;26.80;;;;;;;13.05;55.17;100980.41;5094144;28;20178;-69
2021/04/01 08:44:48;;;;;;;43.03;25.23;;;;;;;13.07;55.34;100983.00;5095435;28;20218;-70
2021/04/01 08:47:26;;;;;;;49.37;28.00;;;;;;;13.04;55.26;100975.13;5094072;28;20779;-72
2021/04/01 08:49:58;;;;;;;46.83;29.73;;;;;;;13.09;54.86;100962.31;5094330;28;20532;-70
2021/04/01 08:52:46;;;;;;;46.70;30.90;;;;;;;13.06;55.99;100957.16;5095185;28;20236;-70
2021/04/01 08:55:19;;;;;;;41.07;25.60;;;;;;;12.84;55.42;100957.56;5095079;28;20159;-70
2021/04/01 08:57:54;;;;;;;43.67;27.77;;;;;;;12.62;55.82;100955.31;5093887;28;20660;-70
2021/04/01 09:00:20;;;;;;;44.17;26.00;;;;;;;12.55;55.67;100937.03;5094956;28;20191;-69
2021/04/01 09:02:48;;;;;;;48.20;28.53;;;;;;;12.26;55.30;100920.00;5093323;28;20173;-70
2021/04/01 09:05:13;;;;;;;41.87;25.67;;;;;;;12.38;56.27;100906.78;5093590;28;20200;-70
2021/04/01 09:07:48;;;;;;;49.20;26.43;;;;;;;12.59;55.01;100896.59;5076784;28;20530;-69
2021/04/01 09:10:19;;;;;;;42.80;25.97;;;;;;;13.01;53.77;100909.22;5094797;28;20194;-70
2021/04/01 09:13:16;;;;;;;44.10;28.83;;;;;;;13.02;54.44;100912.75;5093516;28;20630;-70
2021/04/01 09:15:49;;;;;;;39.00;24.47;;;;;;;13.43;53.11;100908.38;5095480;28;20225;-70
2021/04/01 09:18:26;;;;;;;46.43;28.30;;;;;;;13.39;53.88;100904.16;5094768;28;20163;-70
2021/04/01 09:20:54;;;;;;;47.13;29.40;;;;;;;13.29;53.59;100900.31;5093821;28;20182;-70
2021/04/01 09:23:22;;;;;;;46.53;27.93;;;;;;;13.62;52.28;100910.72;5094549;28;20176;-70
2021/04/01 09:25:49;;;;;;;42.13;26.57;;;;;;;13.90;51.29;100912.47;5095213;28;20194;-70
2021/04/01 09:28:15;;;;;;;44.20;26.17;;;;;;;13.93;51.75;100904.22;5094333;28;20182;-71
2021/04/01 09:30:42;;;;;;;45.10;28.93;;;;;;;13.48;52.73;100893.81;5094739;28;20223;-68
2021/04/01 09:33:15;;;;;;;45.13;27.63;;;;;;;13.76;52.57;100896.44;5094598;28;20174;-73
2021/04/01 09:35:42;;;;;;;43.17;26.87;;;;;;;14.06;51.46;100904.28;5094839;28;20625;-70
2021/04/01 09:38:11;;;;;;;45.00;26.73;;;;;;;14.24;50.31;100907.56;5093110;28;20200;-71
2021/04/01 09:40:41;;;;;;;45.50;25.90;;;;;;;14.40;49.54;100919.84;5094268;28;20189;-71
2021/04/01 09:43:20;;;;;;;45.53;27.77;;;;;;;14.56;49.04;100921.53;5093136;28;20196;-71
2021/04/01 09:45:47;;;;;;;52.50;28.13;;;;;;;14.56;49.40;100906.28;5093426;28;20186;-71
2021/04/01 09:48:14;;;;;;;47.43;28.80;;;;;;;14.73;48.81;100910.50;5094803;28;20174;-72
2021/04/01 09:50:42;;;;;;;45.83;27.53;;;;;;;15.09;48.07;100909.75;5093272;28;20265;-70
2021/04/01 09:53:12;;;;;;;39.60;25.27;;;;;;;14.90;48.97;100912.03;5094618;28;20585;-69
2021/04/01 09:55:43;;;;;;;43.47;27.27;;;;;;;15.10;48.42;100918.69;5092928;28;20202;-71
2021/04/01 09:58:27;;;;;;;44.57;27.17;;;;;;;14.92;49.65;100937.84;5094136;28;20146;-70
2021/04/01 10:03:36;;;;;;;48.97;29.80;;;;;;;14.87;50.24;100944.50;5094220;28;20718;-70
2021/04/01 10:06:01;;;;;;;46.27;29.60;;;;;;;15.63;48.23;100955.25;5092997;28;20185;-71
2021/04/01 10:08:29;;;;;;;49.70;31.83;;;;;;;15.10;50.24;100961.69;5093892;28;20175;-70
2021/04/01 10:10:56;;;;;;;50.67;31.13;;;;;;;15.08;48.92;100952.88;5093031;28;20254;-70
2021/04/01 10:13:24;;;;;;;53.27;31.73;;;;;;;14.60;48.31;100960.66;5092643;28;20235;-70
2021/04/01 10:15:50;;;;;;;58.23;32.70;;;;;;;14.89;48.06;100962.22;5093671;28;20166;-70
2021/04/01 10:18:33;;;;;;;55.23;33.57;;;;;;;14.84;48.24;100966.16;5093767;28;20167;-70
2021/04/01 10:21:04;;;;;;;61.00;34.70;;;;;;;15.63;46.19;100966.03;5093033;28;20634;-70
2021/04/01 10:23:33;;;;;;;53.00;33.93;;;;;;;14.63;48.42;100957.78;5092459;28;20281;-70
2021/04/01 10:26:07;;;;;;;55.27;35.13;;;;;;;14.63;49.72;100973.88;5092477;28;20232;-69
2021/04/01 10:28:44;;;;;;;64.77;37.17;;;;;;;14.78;49.73;100988.94;5093782;28;20212;-70
2021/04/01 10:31:11;;;;;;;57.60;35.67;;;;;;;13.64;53.03;100959.75;5093966;28;20154;-70
2021/04/01 10:33:42;;;;;;;56.03;35.33;;;;;;;13.52;54.25;100971.28;5094340;28;20179;-70
2021/04/01 10:36:08;;;;;;;61.13;39.10;;;;;;;13.35;53.56;100966.94;5093147;28;20230;-71
2021/04/01 10:38:35;;;;;;;63.53;36.37;;;;;;;13.33;53.66;100970.69;5092210;28;20741;-70
2021/04/01 10:41:10;;;;;;;58.33;36.90;;;;;;;13.38;54.75;100976.59;5093300;28;20546;-70
2021/04/01 10:43:39;;;;;;;59.93;36.43;;;;;;;14.23;52.75;100976.50;5093462;28;20230;-70
2021/04/01 10:46:05;;;;;;;53.67;34.87;;;;;;;14.74;52.42;100978.53;5093082;28;20662;-71
2021/04/01 10:48:34;;;;;;;56.73;35.87;;;;;;;15.69;50.44;100973.66;5093261;28;20181;-71
2021/04/01 10:51:07;;;;;;;61.47;38.27;;;;;;;14.48;52.46;100966.84;5092078;28;20185;-71
2021/04/01 10:53:33;;;;;;;64.83;40.07;;;;;;;14.35;53.21;100974.81;5092865;28;20238;-70
2021/04/01 10:56:04;;;;;;;63.17;37.13;;;;;;;14.87;51.81;100985.66;5093442;28;20186;-71
2021/04/01 10:58:29;;;;;;;64.53;38.80;;;;;;;14.29;53.33;100992.22;5093539;28;20249;-71
2021/04/01 11:00:56;;;;;;;65.60;38.83;;;;;;;14.34;53.69;100994.59;5092101;28;20205;-70
2021/04/01 11:03:30;;;;;;;62.50;38.43;;;;;;;14.66;52.08;101000.53;5092242;28;20293;-71
2021/04/01 11:05:55;;;;;;;70.70;39.33;;;;;;;14.39;53.00;100998.69;5092123;28;20570;-70
2021/04/01 11:08:21;;;;;;;70.93;39.80;;;;;;;14.01;53.21;100997.66;5093227;28;20223;-70
2021/04/01 11:10:59;;;;;;;72.03;40.87;;;;;;;13.59;54.60;101012.81;5092479;28;20194;-69
2021/04/01 11:13:33;;;;;;;68.73;41.00;;;;;;;12.93;55.99;101007.91;5075145;28;20166;-70
2021/04/01 11:15:59;;;;;;;72.57;41.50;;;;;;;12.52;57.91;101013.91;5092076;28;20177;-69
2021/04/01 11:18:25;;;;;;;71.30;42.37;;;;;;;12.26;59.64;101019.00;5092278;28;20174;-71
2021/04/01 11:20:51;;;;;;;66.63;39.60;;;;;;;12.93;57.79;101025.81;5092441;28;20170;-70
2021/04/01 11:23:19;;;;;;;74.80;41.20;;;;;;;12.48;59.56;101035.59;5093498;28;20291;-71
2021/04/01 11:25:50;;;;;;;73.00;40.13;;;;;;;13.08;58.13;101027.59;5093285;28;20268;-70
2021/04/01 11:28:15;;;;;;;73.43;41.30;;;;;;;13.11;56.53;101020.22;5095574;28;20713;-71
2021/04/01 11:30:49;;;;;;;76.00;40.40;;;;;;;12.83;56.89;101009.44;5096274;28;20261;-71
2021/04/01 11:33:17;;;;;;;70.37;37.77;;;;;;;13.17;57.08;101031.53;5096172;28;20288;-71
2021/04/01 11:35:44;;;;;;;76.53;41.83;;;;;;;12.93;57.00;101028.47;5078696;28;20668;-71
2021/04/01 11:38:17;;;;;;;72.47;41.03;;;;;;;12.57;58.42;101023.47;5095532;28;20627;-71
2021/04/01 11:40:55;;;;;;;71.83;41.13;;;;;;;12.66;59.29;101031.00;5097087;28;20256;-71
2021/04/01 11:43:25;;;;;;;72.27;40.03;;;;;;;12.06;61.32;101015.66;5095871;28;20162;-72
2021/04/01 11:45:50;;;;;;;75.80;39.73;;;;;;;11.71;62.46;101041.66;5095886;28;20220;-71
2021/04/01 11:48:16;;;;;;;73.20;39.60;;;;;;;11.38;62.93;101038.97;5096608;28;20647;-71
2021/04/01 11:50:41;;;;;;;66.23;37.00;;;;;;;11.33;63.71;101035.69;5096004;28;20166;-70
2021/04/01 11:53:07;;;;;;;66.57;38.07;;;;;;;11.20;64.84;101037.28;5095548;28;20166;-71
2021/04/01 11:55:33;;;;;;;61.30;36.10;;;;;;;10.90;66.40;101043.25;5095076;28;20170;-71
2021/04/01 11:57:58;;;;;;;65.90;35.30;;;;;;;10.91;67.09;101046.78;5096215;28;20175;-71
2021/04/01 12:00:32;;;;;;;54.43;31.30;;;;;;;10.64;68.89;101041.03;5095258;28;20565;-71
2021/04/01 12:03:03;;;;;;;60.17;32.93;;;;;;;10.05;72.02;101036.78;5095214;28;20178;-71
2021/04/01 12:05:32;;;;;;;53.30;31.53;;;;;;;10.02;71.75;101042.22;5095160;28;20218;-71
2021/04/01 12:07:57;;;;;;;51.80;30.33;;;;;;;10.03;71.63;101043.94;5095278;28;20219;-72
2021/04/01 12:10:23;;;;;;;48.87;30.40;;;;;;;9.91;72.66;101050.72;5094906;28;20198;-72
2021/04/01 12:12:54;;;;;;;49.57;30.37;;;;;;;9.67;73.00;101038.56;5096691;28;20360;-70
2021/04/01 12:15:39;;;;;;;47.80;28.10;;;;;;;9.84;72.57;101046.63;5096173;28;20189;-70
2021/04/01 12:18:07;;;;;;;45.03;27.83;;;;;;;9.74;72.41;101039.13;5095869;28;20664;-71
2021/04/01 12:20:33;;;;;;;50.37;26.87;;;;;;;9.78;71.95;101044.25;5095987;28;20190;-71
2021/04/01 12:23:39;;;;;;;43.47;25.00;;;;;;;9.85;72.76;101058.16;5095975;28;20677;-71
2021/04/01 12:26:05;;;;;;;36.87;23.00;;;;;;;9.88;73.29;101058.88;5055881;28;20218;-70
2021/04/01 12:28:31;;;;;;;41.97;22.67;;;;;;;9.97;73.39;101078.91;5094289;28;20197;-70
2021/04/01 12:30:56;;;;;;;37.67;21.40;;;;;;;10.09;71.75;101075.69;5095689;28;20555;-70
2021/04/01 12:33:23;;;;;;;33.70;21.10;;;;;;;10.21;72.09;101077.78;5096084;28;20182;-70
2021/04/01 12:35:54;;;;;;;29.33;20.10;;;;;;;10.18;71.85;101080.59;5077450;28;20197;-71
2021/04/01 12:38:39;;;;;;;33.30;20.50;;;;;;;10.02;72.78;101079.56;5095431;28;20177;-70
2021/04/01 12:41:08;;;;;;;27.07;17.77;;;;;;;9.76;73.62;101078.09;5095358;28;20283;-71
2021/04/01 12:43:39;;;;;;;28.30;19.00;;;;;;;9.67;73.33;101106.06;5095507;28;20579;-70
2021/04/01 12:46:05;;;;;;;27.10;15.57;;;;;;;10.10;71.08;101087.22;5095578;28;20229;-70